Time;durP1;ratioP1;P1;durP2;ratioP2;P2;SDS_P1;SDS_P2;PMS_P1;PMS_P2;Temp;Humidity;BMP_temperature;BMP_pressure;BME280_temperature;BME280_humidity;BME280_pressure;Samples;Min_cycle;Max_cycle;Signal;HPM_P1;HPM_P2
2022/06/25 00:02:15;;;;;;;1.92;1.73;;;22.50;59.00;;;;;;5075529;28;20039;-46
2022/06/25 00:07:25;;;;;;;1.70;1.35;;;22.50;59.00;;;;;;5084389;28;20040;-45
2022/06/25 00:09:51;;;;;;;1.65;1.55;;;22.50;59.10;;;;;;5084512;28;20053;-45
2022/06/25 00:12:32;;;;;;;3.15;1.40;;;22.50;58.90;;;;;;5084283;28;20039;-44
2022/06/25 00:15:03;;;;;;;1.48;1.38;;;22.50;59.00;;;;;;5084042;28;20028;-46
2022/06/25 00:17:29;;;;;;;1.60;1.40;;;22.50;58.90;;;;;;5084253;28;20103;-44
2022/06/25 00:19:55;;;;;;;1.83;1.40;;;22.40;58.80;;;;;;5084271;28;20020;-43
2022/06/25 00:22:22;;;;;;;1.25;1.15;;;22.50;58.90;;;;;;5084018;28;20032;-43
2022/06/25 00:24:48;;;;;;;2.22;1.42;;;22.40;58.80;;;;;;5082334;28;20057;-43
2022/06/25 00:27:14;;;;;;;2.65;1.88;;;22.40;58.90;;;;;;5083863;28;20036;-44
2022/06/25 00:29:40;;;;;;;2.33;1.50;;;22.40;58.90;;;;;;5083827;28;20480;-43
2022/06/25 00:32:09;;;;;;;1.67;1.40;;;22.40;59.00;;;;;;5067420;28;20089;-44
2022/06/25 00:34:36;;;;;;;3.47;1.52;;;22.40;58.90;;;;;;5063303;28;20024;-44
2022/06/25 00:37:03;;;;;;;2.03;1.48;;;22.30;58.90;;;;;;5072168;28;20033;-45
2022/06/25 00:39:29;;;;;;;1.90;1.80;;;22.30;58.90;;;;;;5083931;28;20020;-44
2022/06/25 00:41:55;;;;;;;2.33;1.30;;;22.30;58.80;;;;;;5083409;28;20067;-43
2022/06/25 00:44:21;;;;;;;2.10;1.38;;;22.30;58.70;;;;;;5082708;28;20060;-45
2022/06/25 00:46:47;;;;;;;1.63;1.30;;;22.30;58.90;;;;;;5083343;28;20036;-43
2022/06/25 00:49:13;;;;;;;1.48;1.38;;;22.30;58.80;;;;;;5083447;28;20032;-44
2022/06/25 00:51:40;;;;;;;1.50;1.40;;;22.20;58.80;;;;;;5083203;28;20047;-47
2022/06/25 00:54:09;;;;;;;1.55;1.40;;;22.30;58.80;;;;;;5083188;28;20056;-44
2022/06/25 00:56:39;;;;;;;2.03;1.38;;;22.20;58.80;;;;;;5083109;28;20024;-44
2022/06/25 00:59:06;;;;;;;1.50;1.40;;;22.20;58.80;;;;;;5083604;28;20058;-43
2022/06/25 01:01:35;;;;;;;1.70;1.50;;;22.20;58.80;;;;;;5070853;28;20028;-44
2022/06/25 01:04:01;;;;;;;1.88;1.52;;;22.20;58.80;;;;;;5074630;28;20037;-45
2022/06/25 01:06:28;;;;;;;1.48;1.13;;;22.20;58.80;;;;;;5083271;28;20218;-44
2022/06/25 01:08:58;;;;;;;1.30;1.20;;;22.20;58.70;;;;;;5083212;28;20040;-43
2022/06/25 01:11:45;;;;;;;1.63;1.30;;;22.10;58.70;;;;;;5079568;28;20024;-44
2022/06/25 01:14:11;;;;;;;1.88;1.63;;;22.10;58.70;;;;;;5020708;28;20041;-43
2022/06/25 01:16:37;;;;;;;3.13;1.52;;;22.10;58.80;;;;;;5020679;28;20036;-43
2022/06/25 01:19:10;;;;;;;1.20;1.10;;;22.10;58.60;;;;;;5020756;28;20045;-46
2022/06/25 01:21:37;;;;;;;2.47;1.52;;;22.10;58.70;;;;;;5020745;28;20036;-44
2022/06/25 01:24:04;;;;;;;1.65;1.40;;;22.00;58.60;;;;;;5020032;28;20097;-43
2022/06/25 01:26:33;;;;;;;1.60;1.50;;;22.00;58.70;;;;;;5020828;28;20060;-43
2022/06/25 01:28:59;;;;;;;2.45;1.30;;;22.00;58.60;;;;;;5020794;28;20037;-43
2022/06/25 01:31:25;;;;;;;2.30;1.60;;;22.00;58.60;;;;;;5020188;28;20040;-44
2022/06/25 01:33:51;;;;;;;1.38;1.27;;;22.00;58.60;;;;;;5009755;28;20054;-44
2022/06/25 01:36:17;;;;;;;1.50;1.40;;;21.90;58.60;;;;;;5002723;28;20065;-45
2022/06/25 01:38:45;;;;;;;1.70;1.50;;;21.90;58.60;;;;;;5019430;28;20041;-43
2022/06/25 01:41:11;;;;;;;1.58;1.42;;;21.90;58.60;;;;;;5020307;28;20034;-44
2022/06/25 01:43:37;;;;;;;1.50;1.40;;;21.90;58.60;;;;;;5020446;28;20074;-45
2022/06/25 01:46:04;;;;;;;1.87;1.33;;;21.90;58.60;;;;;;5020243;28;20029;-44
2022/06/25 01:48:30;;;;;;;1.55;1.35;;;21.80;58.60;;;;;;5020640;28;20046;-42
2022/06/25 01:50:56;;;;;;;1.20;1.10;;;21.80;58.50;;;;;;5042406;28;20033;-43
2022/06/25 01:53:22;;;;;;;2.38;1.60;;;21.80;58.50;;;;;;5082760;28;20021;-43
2022/06/25 01:55:49;;;;;;;1.98;1.50;;;21.80;58.40;;;;;;5083529;28;20029;-45
2022/06/25 01:58:15;;;;;;;1.55;1.45;;;21.80;58.50;;;;;;5087005;28;20025;-43
2022/06/25 02:00:42;;;;;;;2.35;1.50;;;21.80;58.60;;;;;;5086218;28;20021;-43
2022/06/25 02:03:08;;;;;;;1.35;1.20;;;21.70;58.50;;;;;;5076435;28;20110;-46
2022/06/25 02:08:19;;;;;;;1.85;1.50;;;21.70;58.50;;;;;;5086744;28;20086;-44
2022/06/25 02:10:46;;;;;;;1.35;1.20;;;21.60;58.40;;;;;;5085271;28;20023;-43
2022/06/25 02:13:12;;;;;;;1.80;1.42;;;21.70;58.60;;;;;;5086781;28;20021;-43
2022/06/25 02:15:38;;;;;;;1.63;1.52;;;21.60;58.40;;;;;;5085084;28;20486;-44
2022/06/25 02:18:04;;;;;;;3.25;1.75;;;21.60;58.50;;;;;;5086550;28;20115;-43
2022/06/25 02:20:30;;;;;;;1.55;1.45;;;21.60;58.60;;;;;;5086361;28;20057;-43
2022/06/25 02:22:57;;;;;;;1.65;1.40;;;21.50;58.50;;;;;;5086397;28;20058;-43
2022/06/25 02:25:24;;;;;;;1.80;1.58;;;21.50;58.60;;;;;;5086188;28;20034;-45
2022/06/25 02:27:50;;;;;;;4.60;1.75;;;21.60;58.50;;;;;;5085992;28;20033;-42
2022/06/25 02:30:16;;;;;;;1.90;1.58;;;21.50;58.50;;;;;;5086533;28;20027;-44
2022/06/25 02:32:42;;;;;;;1.45;1.35;;;21.50;58.60;;;;;;5083899;28;20059;-44
2022/06/25 02:35:08;;;;;;;1.40;1.30;;;21.50;58.70;;;;;;5065576;28;20553;-44
2022/06/25 02:37:34;;;;;;;1.80;1.67;;;21.50;58.60;;;;;;5078882;28;20027;-43
2022/06/25 02:40:00;;;;;;;2.35;1.48;;;21.50;58.70;;;;;;5086144;28;20086;-44
2022/06/25 02:42:36;;;;;;;2.75;2.00;;;21.50;58.70;;;;;;5086002;28;20044;-43
2022/06/25 02:45:03;;;;;;;2.97;1.65;;;21.40;58.80;;;;;;5086112;28;20035;-42
2022/06/25 02:47:29;;;;;;;2.00;1.80;;;21.40;58.70;;;;;;5085354;28;20095;-43
2022/06/25 02:49:55;;;;;;;3.35;2.00;;;21.40;58.80;;;;;;5085988;28;20094;-44
2022/06/25 02:52:21;;;;;;;2.22;1.85;;;21.40;58.80;;;;;;5085847;28;20036;-43
2022/06/25 02:54:47;;;;;;;2.10;1.88;;;21.40;58.90;;;;;;5085601;28;20025;-45
2022/06/25 02:59:58;;;;;;;2.80;1.85;;;21.30;58.80;;;;;;5085473;28;20031;-43
2022/06/25 03:02:24;;;;;;;1.73;1.63;;;21.30;58.80;;;;;;5075508;28;20103;-44
2022/06/25 03:04:50;;;;;;;2.47;2.00;;;21.30;58.90;;;;;;5084075;28;20020;-43
2022/06/25 03:07:17;;;;;;;1.70;1.60;;;21.30;58.90;;;;;;5083742;28;20036;-43
2022/06/25 03:09:43;;;;;;;2.75;1.58;;;21.30;59.00;;;;;;5084280;28;20032;-44
2022/06/25 03:12:09;;;;;;;2.25;1.90;;;21.20;59.00;;;;;;5085415;28;20036;-43
2022/06/25 03:14:35;;;;;;;1.98;1.65;;;21.20;59.00;;;;;;5084507;28;20021;-44
2022/06/25 03:17:01;;;;;;;2.05;1.83;;;21.20;58.90;;;;;;5065746;28;20025;-43
2022/06/25 03:19:27;;;;;;;3.75;1.48;;;21.20;58.90;;;;;;5065075;28;20032;-44
2022/06/25 03:21:53;;;;;;;2.47;1.60;;;21.20;58.90;;;;;;5065294;28;20037;-44
2022/06/25 03:24:20;;;;;;;2.03;1.80;;;21.10;58.90;;;;;;5065366;28;20097;-43
2022/06/25 03:26:46;;;;;;;2.78;1.95;;;21.10;58.90;;;;;;5075536;28;20650;-45
2022/06/25 03:29:12;;;;;;;1.60;1.50;;;21.10;59.00;;;;;;5085337;28;20062;-43
2022/06/25 03:31:38;;;;;;;1.50;1.40;;;21.10;58.90;;;;;;5083568;28;20033;-43
2022/06/25 03:34:04;;;;;;;1.63;1.52;;;21.10;58.90;;;;;;5072885;28;20035;-45
2022/06/25 03:36:30;;;;;;;2.25;1.70;;;21.10;58.90;;;;;;5068266;28;20029;-44
2022/06/25 03:38:56;;;;;;;1.90;1.70;;;21.00;59.00;;;;;;5084844;28;20029;-43
2022/06/25 03:41:37;;;;;;;2.50;1.90;;;21.00;58.90;;;;;;5083730;28;20052;-44
2022/06/25 03:44:04;;;;;;;2.08;1.67;;;21.00;59.00;;;;;;5084962;28;20036;-44
2022/06/25 03:46:31;;;;;;;1.92;1.63;;;21.00;59.00;;;;;;5084652;28;20428;-44
2022/06/25 03:48:58;;;;;;;7.90;1.70;;;21.00;59.10;;;;;;5084418;28;20113;-44
2022/06/25 03:51:24;;;;;;;1.80;1.47;;;20.90;59.00;;;;;;5084819;28;20021;-43
2022/06/25 03:53:50;;;;;;;1.77;1.52;;;20.90;59.00;;;;;;5084789;28;20054;-43
2022/06/25 03:56:16;;;;;;;1.95;1.55;;;21.00;60.30;;;;;;5081058;28;20048;-45
2022/06/25 03:58:42;;;;;;;1.90;1.70;;;21.10;60.90;;;;;;5074684;28;20024;-44
2022/06/25 04:01:08;;;;;;;2.03;1.45;;;21.10;61.10;;;;;;5070611;28;20033;-45
2022/06/25 04:03:34;;;;;;;1.88;1.77;;;21.10;59.60;;;;;;5071846;28;20534;-43
2022/06/25 04:06:00;;;;;;;1.60;1.50;;;21.00;59.40;;;;;;5071139;28;20025;-45
2022/06/25 04:08:26;;;;;;;2.13;1.52;;;21.00;59.30;;;;;;5072028;28;20513;-43
2022/06/25 04:10:52;;;;;;;1.48;1.30;;;20.90;59.20;;;;;;5069093;28;20028;-46
2022/06/25 04:13:18;;;;;;;1.42;1.33;;;21.00;60.30;;;;;;5074331;28;20040;-45
2022/06/25 04:15:45;;;;;;;1.40;1.30;;;21.10;61.10;;;;;;5068320;28;20019;-44
2022/06/25 04:18:11;;;;;;;1.75;1.40;;;21.10;61.20;;;;;;5071784;28;20040;-43
2022/06/25 04:20:37;;;;;;;1.70;1.50;;;21.10;59.70;;;;;;5068793;28;20032;-44
2022/06/25 04:23:03;;;;;;;1.55;1.45;;;21.00;59.60;;;;;;5071164;28;20125;-45
2022/06/25 04:25:29;;;;;;;1.77;1.67;;;21.00;59.40;;;;;;5072396;28;20023;-44
2022/06/25 04:30:39;;;;;;;1.50;1.40;;;21.00;60.70;;;;;;5078005;28;20036;-44
2022/06/25 04:33:06;;;;;;;1.48;1.33;;;21.10;60.90;;;;;;5068798;28;20021;-45
2022/06/25 04:35:32;;;;;;;1.55;1.45;;;21.10;60.90;;;;;;5083644;28;20036;-45
2022/06/25 04:37:58;;;;;;;2.08;1.70;;;21.10;59.90;;;;;;5083238;28;20029;-44
2022/06/25 04:40:24;;;;;;;1.92;1.50;;;21.00;59.80;;;;;;5083806;28;20088;-44
2022/06/25 04:42:50;;;;;;;1.70;1.45;;;21.00;59.60;;;;;;5083660;28;20051;-44
2022/06/25 04:45:16;;;;;;;1.65;1.55;;;21.00;59.60;;;;;;5083635;28;20031;-44
2022/06/25 04:47:42;;;;;;;1.83;1.33;;;21.10;60.90;;;;;;5083299;28;20066;-43
2022/06/25 04:50:08;;;;;;;1.45;1.20;;;21.10;60.90;;;;;;5083169;28;20131;-45
2022/06/25 04:52:35;;;;;;;1.55;1.40;;;21.10;61.00;;;;;;5083565;28;20085;-43
2022/06/25 04:55:01;;;;;;;1.75;1.63;;;21.10;61.10;;;;;;5083539;28;20809;-43
2022/06/25 04:57:27;;;;;;;1.45;1.27;;;21.10;60.00;;;;;;5082165;28;20021;-44
2022/06/25 04:59:53;;;;;;;1.55;1.45;;;21.00;59.80;;;;;;5083305;28;20098;-43
2022/06/25 05:02:19;;;;;;;1.60;1.50;;;21.00;59.60;;;;;;5075691;28;20080;-43
2022/06/25 05:04:45;;;;;;;1.40;1.30;;;21.10;60.50;;;;;;5081285;28;20024;-44
2022/06/25 05:07:11;;;;;;;1.60;1.50;;;21.10;60.70;;;;;;5074796;28;20040;-43
2022/06/25 05:09:37;;;;;;;1.80;1.50;;;21.10;60.60;;;;;;5070930;28;20048;-44
2022/06/25 05:12:04;;;;;;;1.45;1.35;;;21.20;60.60;;;;;;5069021;28;20033;-44
2022/06/25 05:14:30;;;;;;;1.93;1.67;;;21.20;60.70;;;;;;5070581;28;20025;-43
2022/06/25 05:16:56;;;;;;;1.50;1.15;;;21.20;60.00;;;;;;5066515;28;20032;-44
2022/06/25 05:19:22;;;;;;;1.90;1.70;;;21.10;59.90;;;;;;5070981;28;21985;-45
2022/06/25 05:21:48;;;;;;;1.48;1.20;;;21.10;59.70;;;;;;5071865;28;20060;-43
2022/06/25 05:24:14;;;;;;;1.33;1.23;;;21.10;60.20;;;;;;5068275;28;20021;-44
2022/06/25 05:26:41;;;;;;;1.65;1.52;;;21.20;60.60;;;;;;5064927;28;20036;-43
2022/06/25 05:29:07;;;;;;;1.48;1.20;;;21.20;60.40;;;;;;5069416;28;20037;-43
2022/06/25 05:31:33;;;;;;;1.45;1.35;;;21.20;60.60;;;;;;5068142;28;20032;-43
2022/06/25 05:33:59;;;;;;;1.98;1.55;;;21.20;60.50;;;;;;5069561;28;20035;-43
2022/06/25 05:36:25;;;;;;;1.55;1.35;;;21.20;60.70;;;;;;5066956;28;20029;-43
2022/06/25 05:38:51;;;;;;;1.67;1.55;;;21.20;60.60;;;;;;5065902;28;20033;-43
2022/06/25 05:41:17;;;;;;;2.25;1.80;;;21.30;60.50;;;;;;5063013;28;20028;-45
2022/06/25 05:43:43;;;;;;;1.92;1.58;;;21.30;60.50;;;;;;5062838;28;20060;-42
2022/06/25 05:46:09;;;;;;;1.40;1.30;;;21.30;60.50;;;;;;5062900;28;20031;-43
2022/06/25 05:48:36;;;;;;;1.88;1.58;;;21.30;60.30;;;;;;5062667;28;20033;-44
2022/06/25 05:51:02;;;;;;;1.60;1.38;;;21.20;60.10;;;;;;5062788;28;20037;-44
2022/06/25 05:53:28;;;;;;;1.52;1.38;;;21.20;59.90;;;;;;5071572;28;20051;-45
2022/06/25 05:55:54;;;;;;;2.20;1.60;;;21.20;60.00;;;;;;5078675;28;20033;-43
2022/06/25 05:58:22;;;;;;;2.30;1.30;;;21.30;60.20;;;;;;5078503;28;20848;-43
2022/06/25 06:00:48;;;;;;;;;;;21.30;60.40;;;;;;5082200;28;20036;-44
2022/06/25 06:03:14;;;;;;;1.65;1.52;;;21.30;60.20;;;;;;5068106;28;19995;-43
2022/06/25 06:05:40;;;;;;;1.50;1.23;;;21.30;60.30;;;;;;5078160;28;20032;-43
2022/06/25 06:08:06;;;;;;;1.70;1.55;;;21.30;60.30;;;;;;5082366;28;20063;-43
2022/06/25 06:10:33;;;;;;;1.90;1.40;;;21.40;60.20;;;;;;5082446;28;20021;-44
2022/06/25 06:12:59;;;;;;;1.70;1.30;;;21.40;60.30;;;;;;5082741;28;20078;-43
2022/06/25 06:15:25;;;;;;;1.67;1.55;;;21.40;60.30;;;;;;5082776;28;20017;-44
2022/06/25 06:17:51;;;;;;;2.15;1.80;;;21.40;60.20;;;;;;5082542;28;20032;-45
2022/06/25 06:20:18;;;;;;;2.00;1.38;;;21.40;60.20;;;;;;5082310;28;20027;-44
2022/06/25 06:22:44;;;;;;;1.45;1.02;;;21.40;60.20;;;;;;5082458;28;20036;-44
2022/06/25 06:25:10;;;;;;;1.30;1.20;;;21.40;60.20;;;;;;5082338;28;20025;-46
2022/06/25 06:27:36;;;;;;;1.20;1.10;;;21.40;60.20;;;;;;5082372;28;20036;-43
2022/06/25 06:30:03;;;;;;;2.50;1.48;;;21.50;60.20;;;;;;5080005;28;20021;-45
2022/06/25 06:32:29;;;;;;;1.63;1.20;;;21.50;60.20;;;;;;5070796;28;20062;-44
2022/06/25 06:34:55;;;;;;;1.40;1.30;;;21.50;60.20;;;;;;5063110;28;20052;-44
2022/06/25 06:37:21;;;;;;;1.88;1.50;;;21.40;60.10;;;;;;5073117;28;20043;-43
2022/06/25 06:39:47;;;;;;;1.75;1.40;;;21.40;60.00;;;;;;5082203;28;20054;-44
2022/06/25 06:42:13;;;;;;;1.75;1.30;;;21.40;59.80;;;;;;5082117;28;20048;-45
2022/06/25 06:44:39;;;;;;;1.55;1.20;;;21.40;59.80;;;;;;5086185;28;20028;-44
2022/06/25 06:47:05;;;;;;;1.10;1.00;;;21.40;59.80;;;;;;5085904;28;20028;-44
2022/06/25 06:49:31;;;;;;;1.50;1.40;;;21.40;59.70;;;;;;5085476;28;20106;-45
2022/06/25 06:51:57;;;;;;;1.38;1.27;;;21.50;59.80;;;;;;5085619;28;20028;-44
2022/06/25 06:54:23;;;;;;;1.60;1.35;;;21.50;59.70;;;;;;5085979;28;20028;-44
2022/06/25 06:56:50;;;;;;;1.38;1.23;;;21.50;59.70;;;;;;5085771;28;20029;-43
2022/06/25 06:59:16;;;;;;;1.50;1.40;;;21.50;59.80;;;;;;5085330;28;20035;-44
2022/06/25 07:01:42;;;;;;;1.70;1.45;;;21.50;59.70;;;;;;5071086;28;20032;-43
2022/06/25 07:04:08;;;;;;;1.33;1.17;;;21.50;59.70;;;;;;5078565;28;20036;-44
2022/06/25 07:06:34;;;;;;;2.17;1.50;;;21.60;59.70;;;;;;5085144;28;20485;-43
2022/06/25 07:09:00;;;;;;;1.60;1.50;;;21.50;59.80;;;;;;5085606;28;20128;-43
2022/06/25 07:11:29;;;;;;;2.25;2.05;;;21.50;59.70;;;;;;5082342;28;20032;-45
2022/06/25 07:13:56;;;;;;;1.40;1.00;;;21.50;59.50;;;;;;5085546;28;20021;-44
2022/06/25 07:16:22;;;;;;;1.73;1.42;;;21.50;59.50;;;;;;5082680;28;20029;-45
2022/06/25 07:18:48;;;;;;;1.20;1.10;;;21.50;59.50;;;;;;5076755;28;20029;-44
2022/06/25 07:21:15;;;;;;;1.75;1.65;;;21.50;59.40;;;;;;5084932;28;20051;-45
2022/06/25 07:23:41;;;;;;;2.08;1.73;;;21.60;59.40;;;;;;5085512;28;20170;-44
2022/06/25 07:26:07;;;;;;;1.30;1.13;;;21.50;59.40;;;;;;5085256;28;20017;-46
2022/06/25 07:28:33;;;;;;;2.00;1.55;;;21.60;59.50;;;;;;5085208;28;20043;-45
2022/06/25 07:30:59;;;;;;;1.73;1.50;;;21.60;59.50;;;;;;5079307;28;20051;-43
2022/06/25 07:33:25;;;;;;;1.48;1.38;;;21.60;59.50;;;;;;5068862;28;20032;-43
2022/06/25 07:35:51;;;;;;;1.55;1.30;;;21.60;59.50;;;;;;5064565;28;20025;-45
2022/06/25 07:38:17;;;;;;;1.73;1.58;;;21.60;59.40;;;;;;5083997;28;20095;-43
2022/06/25 07:40:43;;;;;;;2.13;1.50;;;21.60;59.50;;;;;;5083528;28;20024;-44
2022/06/25 07:43:10;;;;;;;3.05;1.88;;;21.60;59.40;;;;;;5084971;28;20057;-44
2022/06/25 07:45:36;;;;;;;1.80;1.58;;;21.60;59.60;;;;;;5085022;28;20025;-43
2022/06/25 07:48:02;;;;;;;1.60;1.33;;;21.50;59.40;;;;;;5084904;28;20039;-44
2022/06/25 07:53:13;;;;;;;1.85;1.60;;;21.60;59.30;;;;;;5084470;28;20036;-43
2022/06/25 07:55:39;;;;;;;1.52;1.33;;;21.60;59.20;;;;;;5083087;28;20055;-45
2022/06/25 07:58:05;;;;;;;2.90;1.88;;;21.60;59.30;;;;;;5063400;28;20108;-43
2022/06/25 08:00:33;;;;;;;1.27;1.15;;;21.60;59.20;;;;;;5069458;28;20080;-44
2022/06/25 08:02:59;;;;;;;1.38;1.23;;;21.60;59.20;;;;;;5079148;28;20033;-43
2022/06/25 08:05:25;;;;;;;1.70;1.60;;;21.60;59.30;;;;;;5068444;28;20580;-44
2022/06/25 08:07:51;;;;;;;2.00;1.67;;;21.60;59.30;;;;;;5075499;28;20139;-44
2022/06/25 08:10:17;;;;;;;2.95;1.27;;;21.60;59.20;;;;;;5070032;28;20024;-44
2022/06/25 08:12:44;;;;;;;1.50;1.38;;;21.60;59.20;;;;;;5071888;28;20100;-45
2022/06/25 08:15:11;;;;;;;1.92;1.67;;;21.60;59.20;;;;;;5072195;28;20491;-43
2022/06/25 08:17:37;;;;;;;2.83;1.40;;;21.60;59.20;;;;;;5072279;28;20043;-44
2022/06/25 08:20:03;;;;;;;2.50;1.80;;;21.60;59.20;;;;;;5072572;28;20056;-44
2022/06/25 08:22:29;;;;;;;2.65;1.40;;;21.60;59.20;;;;;;5073625;28;20028;-43
2022/06/25 08:24:58;;;;;;;1.35;1.25;;;21.60;59.20;;;;;;5074763;28;20021;-45
2022/06/25 08:27:25;;;;;;;2.20;1.55;;;21.60;59.20;;;;;;5072973;28;20064;-44
2022/06/25 08:29:51;;;;;;;1.90;1.42;;;21.60;59.30;;;;;;5076597;28;20072;-44
2022/06/25 08:32:17;;;;;;;1.50;1.30;;;21.60;59.30;;;;;;5066681;28;20104;-44
2022/06/25 08:34:43;;;;;;;1.63;1.50;;;21.70;59.30;;;;;;5073753;28;20070;-44
2022/06/25 08:37:09;;;;;;;1.48;1.33;;;21.70;59.30;;;;;;5076758;28;20038;-45
2022/06/25 08:39:35;;;;;;;1.90;1.52;;;21.70;59.40;;;;;;5084076;28;20021;-44
2022/06/25 08:42:02;;;;;;;1.50;1.38;;;21.70;59.40;;;;;;5083292;28;20568;-45
2022/06/25 08:44:31;;;;;;;1.48;1.20;;;21.70;59.30;;;;;;5083885;28;20029;-44
2022/06/25 08:46:58;;;;;;;1.88;1.48;;;21.70;59.30;;;;;;5083597;28;20489;-43
2022/06/25 08:49:24;;;;;;;1.77;1.52;;;21.70;59.30;;;;;;5083724;28;20039;-44
2022/06/25 08:51:54;;;;;;;1.60;1.50;;;21.70;59.40;;;;;;5083312;28;20021;-43
2022/06/25 08:54:20;;;;;;;1.60;1.50;;;21.70;59.30;;;;;;5083900;28;20021;-43
2022/06/25 08:56:46;;;;;;;1.63;1.20;;;21.70;59.30;;;;;;5072161;28;20039;-44
2022/06/25 08:59:13;;;;;;;1.70;1.33;;;21.70;59.30;;;;;;5063580;28;20048;-44
2022/06/25 09:01:39;;;;;;;1.52;1.40;;;21.70;59.30;;;;;;5076296;28;20102;-43
2022/06/25 09:04:05;;;;;;;1.38;1.27;;;21.70;59.30;;;;;;5083127;28;20042;-43
2022/06/25 09:06:31;;;;;;;1.75;1.55;;;21.70;59.30;;;;;;5067284;28;20352;-43
2022/06/25 09:09:15;;;;;;;2.25;1.60;;;21.70;59.30;;;;;;5083593;28;20044;-44
2022/06/25 09:11:55;;;;;;;1.48;1.30;;;21.70;59.50;;;;;;5082898;28;20058;-44
2022/06/25 09:14:22;;;;;;;1.85;1.40;;;21.70;59.50;;;;;;5083068;28;20032;-43
2022/06/25 09:16:58;;;;;;;1.35;1.25;;;21.70;59.40;;;;;;5080326;28;20033;-45
2022/06/25 09:19:51;;;;;;;2.03;1.52;;;21.80;59.40;;;;;;5083242;28;20029;-43
2022/06/25 09:22:19;;;;;;;1.10;1.00;;;21.70;59.30;;;;;;5080043;28;20036;-44
2022/06/25 09:24:51;;;;;;;1.67;1.40;;;21.70;59.20;;;;;;5083094;28;20032;-43
2022/06/25 09:27:22;;;;;;;1.67;1.30;;;21.80;59.20;;;;;;5067706;28;20041;-46
2022/06/25 09:29:49;;;;;;;1.83;1.65;;;21.80;59.30;;;;;;5063127;28;20036;-44
2022/06/25 09:32:16;;;;;;;1.75;1.52;;;21.80;59.30;;;;;;5075260;28;20032;-43
2022/06/25 09:34:42;;;;;;;1.65;1.45;;;21.80;59.40;;;;;;5062945;28;20064;-44
2022/06/25 09:37:16;;;;;;;1.52;1.27;;;21.80;59.30;;;;;;5063767;28;20041;-44
2022/06/25 09:39:42;;;;;;;1.75;1.30;;;21.80;59.40;;;;;;5063060;28;20033;-43
2022/06/25 09:42:19;;;;;;;1.70;1.48;;;21.80;59.30;;;;;;5061452;28;20052;-43
2022/06/25 09:44:46;;;;;;;1.97;1.40;;;21.80;59.60;;;;;;5062714;28;20055;-46
2022/06/25 09:47:13;;;;;;;1.45;1.35;;;21.70;59.60;;;;;;5062713;28;20304;-44
2022/06/25 09:49:40;;;;;;;2.30;1.38;;;21.70;59.50;;;;;;5064753;28;20033;-43
2022/06/25 09:52:07;;;;;;;2.37;1.57;;;21.70;59.30;;;;;;5081302;28;20035;-46
2022/06/25 09:54:33;;;;;;;3.10;1.20;;;21.70;59.20;;;;;;5082731;28;20265;-44
2022/06/25 09:57:02;;;;;;;1.67;1.58;;;21.80;59.10;;;;;;5069766;28;20029;-44
2022/06/25 09:59:30;;;;;;;1.55;1.25;;;21.80;59.10;;;;;;5062657;28;20021;-43
2022/06/25 10:02:01;;;;;;;1.35;1.10;;;21.80;59.20;;;;;;5079052;28;20024;-45
2022/06/25 10:04:30;;;;;;;1.90;1.30;;;21.80;59.00;;;;;;5082346;28;20050;-43
2022/06/25 10:06:56;;;;;;;2.05;1.65;;;21.80;58.90;;;;;;5081241;28;20036;-44
2022/06/25 10:09:25;;;;;;;1.38;1.10;;;21.80;59.00;;;;;;5082915;28;20031;-44
2022/06/25 10:11:52;;;;;;;1.88;1.30;;;21.80;58.90;;;;;;5064721;28;20082;-43
2022/06/25 10:14:18;;;;;;;1.37;1.27;;;21.80;59.00;;;;;;5082424;28;20029;-43
2022/06/25 10:16:44;;;;;;;2.30;1.83;;;21.80;59.40;;;;;;5083347;28;20040;-43
2022/06/25 10:19:12;;;;;;;1.63;1.20;;;21.80;59.30;;;;;;5086529;28;20036;-43
2022/06/25 10:21:38;;;;;;;1.30;1.20;;;21.80;59.50;;;;;;5086441;28;20020;-45
2022/06/25 10:24:05;;;;;;;1.77;1.30;;;21.80;60.00;;;;;;5086009;28;20033;-45
2022/06/25 10:26:31;;;;;;;2.03;1.52;;;21.80;59.60;;;;;;5077339;28;20029;-45
2022/06/25 10:29:00;;;;;;;2.03;1.52;;;21.80;59.60;;;;;;5066206;28;20041;-43
2022/06/25 10:31:26;;;;;;;2.47;1.35;;;21.80;59.60;;;;;;5078084;28;20119;-43
2022/06/25 10:34:05;;;;;;;1.98;1.42;;;21.80;59.70;;;;;;5074806;28;20033;-43
2022/06/25 10:36:44;;;;;;;1.58;1.48;;;21.80;59.70;;;;;;5065818;28;20037;-44
2022/06/25 10:39:22;;;;;;;2.05;1.50;;;21.80;59.50;;;;;;5066103;28;20025;-43
2022/06/25 10:45:32;;;;;;;2.00;1.50;;;21.80;59.50;;;;;;5065872;28;20032;-43
2022/06/25 10:47:59;;;;;;;1.45;1.35;;;21.80;59.70;;;;;;5065367;28;20071;-43
2022/06/25 10:50:25;;;;;;;1.42;1.20;;;21.80;59.80;;;;;;5064528;28;20025;-43
2022/06/25 10:53:05;;;;;;;2.67;1.40;;;21.80;59.90;;;;;;5065662;28;20053;-43
2022/06/25 10:55:49;;;;;;;1.40;1.20;;;21.80;59.90;;;;;;5066303;28;20029;-44
2022/06/25 10:58:42;;;;;;;1.95;1.42;;;21.80;59.80;;;;;;5085884;28;20055;-44
2022/06/25 11:01:18;;;;;;;1.80;1.40;;;21.80;59.90;;;;;;5084476;28;20036;-43
2022/06/25 11:03:44;;;;;;;1.73;1.25;;;21.80;60.00;;;;;;5075811;28;20115;-43
2022/06/25 11:06:22;;;;;;;1.30;1.15;;;21.80;59.90;;;;;;5084835;28;20044;-43
2022/06/25 11:08:49;;;;;;;;;;;21.80;60.40;;;;;;5085553;28;20043;-43
2022/06/25 11:11:35;;;;;;;1.20;1.02;;;21.80;59.90;;;;;;5084980;28;20444;-43
2022/06/25 11:14:04;;;;;;;4.10;1.40;;;21.80;60.10;;;;;;5085261;28;20020;-43
2022/06/25 11:16:30;;;;;;;1.50;1.20;;;21.80;60.10;;;;;;5085591;28;20036;-42
2022/06/25 11:18:58;;;;;;;1.80;1.30;;;21.80;60.10;;;;;;5085273;28;20027;-45
2022/06/25 11:21:34;;;;;;;2.08;1.40;;;21.80;60.20;;;;;;5082293;28;20064;-43
2022/06/25 11:24:27;;;;;;;1.58;1.20;;;21.80;60.20;;;;;;5084910;28;20025;-43
2022/06/25 11:29:46;;;;;;;1.30;1.20;;;21.80;60.20;;;;;;5064471;28;20047;-43
2022/06/25 11:32:24;;;;;;;1.40;1.20;;;21.80;60.30;;;;;;5077207;28;20024;-43
2022/06/25 11:34:54;;;;;;;1.38;1.25;;;21.80;60.10;;;;;;5083313;28;20035;-43
2022/06/25 11:37:20;;;;;;;1.58;1.20;;;21.70;59.70;;;;;;5084609;28;20028;-42
2022/06/25 11:39:47;;;;;;;3.13;1.50;;;21.80;59.50;;;;;;5084960;28;20059;-43
2022/06/25 11:42:13;;;;;;;2.15;1.40;;;21.80;59.60;;;;;;5084775;28;20063;-43
2022/06/25 11:44:47;;;;;;;1.97;1.40;;;21.80;59.60;;;;;;5084684;28;20029;-44
2022/06/25 11:47:20;;;;;;;1.45;1.25;;;21.80;59.60;;;;;;5084981;28;20144;-43
2022/06/25 11:49:46;;;;;;;2.53;1.55;;;21.90;59.70;;;;;;5081423;28;20059;-44
2022/06/25 11:52:13;;;;;;;1.52;1.20;;;21.80;59.60;;;;;;5084562;28;20066;-43
2022/06/25 11:54:40;;;;;;;1.30;1.15;;;21.80;59.60;;;;;;5084483;28;20029;-42
2022/06/25 11:57:08;;;;;;;1.27;1.13;;;21.80;59.90;;;;;;5070468;28;20044;-43
2022/06/25 11:59:36;;;;;;;1.35;1.10;;;21.70;59.80;;;;;;5070880;28;20021;-43
2022/06/25 12:02:04;;;;;;;1.40;1.10;;;21.70;59.60;;;;;;5079364;28;20056;-42
2022/06/25 12:04:31;;;;;;;1.85;1.13;;;21.80;59.60;;;;;;5079874;28;20064;-43
2022/06/25 12:06:58;;;;;;;1.75;1.35;;;21.80;59.60;;;;;;5079921;28;20043;-42
2022/06/25 12:09:25;;;;;;;2.60;1.55;;;21.80;59.60;;;;;;5067719;28;20037;-43
2022/06/25 12:11:55;;;;;;;2.20;1.63;;;21.80;59.70;;;;;;5056914;28;20044;-42
2022/06/25 12:14:23;;;;;;;3.40;1.45;;;21.80;59.70;;;;;;5072898;28;20054;-43
2022/06/25 12:16:49;;;;;;;1.55;1.33;;;21.80;59.80;;;;;;5070018;28;20039;-44
2022/06/25 12:19:16;;;;;;;2.00;1.30;;;21.80;59.70;;;;;;5074620;28;20142;-43
2022/06/25 12:21:42;;;;;;;1.73;1.30;;;21.80;59.80;;;;;;5069899;28;20027;-42
2022/06/25 12:24:14;;;;;;;1.70;1.55;;;21.80;59.90;;;;;;5071597;28;20029;-43
2022/06/25 12:26:41;;;;;;;1.23;1.02;;;21.80;60.20;;;;;;5066976;28;20089;-43
2022/06/25 12:29:34;;;;;;;2.78;1.50;;;21.80;60.20;;;;;;5068133;28;20041;-42
2022/06/25 12:32:00;;;;;;;1.65;1.10;;;21.80;60.20;;;;;;5021194;28;20034;-43
2022/06/25 12:34:27;;;;;;;2.22;1.52;;;21.80;60.40;;;;;;5021479;28;20072;-43
2022/06/25 12:36:55;;;;;;;1.27;1.17;;;21.70;60.20;;;;;;5020771;28;20177;-46
2022/06/25 12:39:37;;;;;;;1.33;1.15;;;21.70;60.00;;;;;;5021544;28;20038;-43
2022/06/25 12:42:08;;;;;;;2.05;1.20;;;21.80;59.70;;;;;;5020898;28;20065;-43
2022/06/25 12:44:37;;;;;;;2.22;1.48;;;21.80;59.70;;;;;;5021183;28;20109;-45
2022/06/25 12:47:13;;;;;;;1.75;1.10;;;21.80;60.30;;;;;;5020696;28;20084;-43
2022/06/25 12:49:41;;;;;;;1.60;1.30;;;21.80;59.80;;;;;;5021182;28;20041;-42
2022/06/25 12:52:07;;;;;;;1.13;0.98;;;21.80;59.90;;;;;;5021056;28;20029;-44
2022/06/25 12:54:44;;;;;;;1.85;1.10;;;21.80;60.00;;;;;;5021027;28;20030;-44
2022/06/25 12:57:16;;;;;;;2.63;1.33;;;21.80;60.30;;;;;;5020328;28;20073;-43
2022/06/25 12:59:44;;;;;;;2.25;1.55;;;21.80;60.30;;;;;;5021577;28;20053;-42
2022/06/25 13:02:10;;;;;;;2.25;1.27;;;21.80;60.50;;;;;;5020799;28;20029;-44
2022/06/25 13:04:36;;;;;;;2.25;1.23;;;21.80;60.50;;;;;;5020897;28;20045;-43
2022/06/25 13:07:02;;;;;;;2.28;1.20;;;21.70;60.30;;;;;;5020166;28;20121;-42
2022/06/25 13:09:28;;;;;;;1.70;1.00;;;21.80;60.00;;;;;;5061487;28;20040;-44
2022/06/25 13:11:54;;;;;;;1.83;1.20;;;21.80;60.10;;;;;;5083012;28;20080;-42